Terminal Aerodrome Forecast
Issued by NWS Wilmington, OH

Current Version | Previous Version | Graphics & Text | Print | Product List | Glossary On
Versions: 1 2 3 4 5 6 7 8 9 10 11 12 13
000
FTUS41 KILN 241700
TAFCMH
TAF
KCMH 241738Z 2418/2518 22012G20KT P6SM SCT120 BKN250
     FM250000 24012G20KT P6SM BKN050
     FM250300 25012KT P6SM OVC025
     FM251200 29008KT P6SM BKN025
     FM251500 33004KT P6SM BKN025=

USA.gov is the U.S. government's official web portal to all federal, state and local government web resources and services.